Time,TemperatureF,DewpointF,PressureIn,WindDirection,WindDirectionDegrees,WindSpeedMPH,WindSpeedGustMPH,Humidity,HourlyPrecipIn,Conditions,Clouds,dailyrainin,SoftwareType,DateUTC
2013-05-08 00:03:00,51.2,44.0,30.11,SSE,159,1.0,2.0,77,0.00,,,0.00,weatherlink.com 1.10,2013-05-08 04:03:00,
2013-05-08 00:18:00,51.3,45.0,30.11,SSE,159,1.0,2.0,79,0.00,,,0.00,weatherlink.com 1.10,2013-05-08 04:18:00,
2013-05-08 00:33:00,51.6,46.0,30.11,SSE,159,0.0,1.0,80,0.00,,,0.00,weatherlink.com 1.10,2013-05-08 04:33:00,
2013-05-08 00:48:00,51.5,46.0,30.11,SSE,159,0.0,0.0,82,0.00,,,0.00,weatherlink.com 1.10,2013-05-08 04:48:00,
2013-05-08 01:03:00,51.6,47.0,30.11,SSE,160,0.0,0.0,84,0.00,,,0.00,weatherlink.com 1.10,2013-05-08 05:03:00,
2013-05-08 01:18:00,51.7,47.0,30.10,SSE,165,0.0,4.0,83,0.00,,,0.00,weatherlink.com 1.10,2013-05-08 05:18:00,
2013-05-08 01:33:00,51.7,47.0,30.11,ESE,113,1.0,1.0,83,0.00,,,0.00,weatherlink.com 1.10,2013-05-08 05:33:00,
2013-05-08 01:48:00,50.0,46.0,30.11,SE,142,0.0,3.0,86,0.00,,,0.00,weatherlink.com 1.10,2013-05-08 05:48:00,
2013-05-08 02:03:00,49.5,46.0,30.10,SE,144,0.0,1.0,88,0.00,,,0.00,weatherlink.com 1.10,2013-05-08 06:03:00,
2013-05-08 02:18:00,49.0,46.0,30.10,SE,143,0.0,0.0,89,0.00,,,0.00,weatherlink.com 1.10,2013-05-08 06:18:00,
2013-05-08 02:33:00,48.9,46.0,30.09,SE,142,0.0,0.0,90,0.00,,,0.00,weatherlink.com 1.10,2013-05-08 06:33:00,
2013-05-08 02:48:00,49.2,47.0,30.08,SE,142,0.0,0.0,91,0.00,,,0.00,weatherlink.com 1.10,2013-05-08 06:48:00,
2013-05-08 03:03:00,49.3,47.0,30.09,SE,143,0.0,0.0,90,0.00,,,0.00,weatherlink.com 1.10,2013-05-08 07:03:00,
2013-05-08 03:18:00,49.5,47.0,30.09,SE,143,0.0,1.0,91,0.00,,,0.00,weatherlink.com 1.10,2013-05-08 07:18:00,
2013-05-08 03:33:00,49.2,47.0,30.08,SE,145,0.0,0.0,92,0.00,,,0.00,weatherlink.com 1.10,2013-05-08 07:33:00,
2013-05-08 03:48:00,48.9,47.0,30.09,SE,143,0.0,0.0,92,0.00,,,0.00,weatherlink.com 1.10,2013-05-08 07:48:00,
2013-05-08 04:03:00,48.4,47.0,30.09,SE,143,0.0,0.0,94,0.00,,,0.00,weatherlink.com 1.10,2013-05-08 08:03:00,
2013-05-08 04:18:00,48.1,46.0,30.09,SE,144,0.0,0.0,93,0.00,,,0.00,weatherlink.com 1.10,2013-05-08 08:18:00,
2013-05-08 04:33:00,47.7,46.0,30.09,SE,145,0.0,0.0,94,0.00,,,0.00,weatherlink.com 1.10,2013-05-08 08:33:00,
2013-05-08 04:48:00,47.5,46.0,30.09,SE,145,0.0,0.0,94,0.00,,,0.00,weatherlink.com 1.10,2013-05-08 08:48:00,
2013-05-08 05:03:00,47.6,46.0,30.09,SE,146,0.0,0.0,94,0.00,,,0.00,weatherlink.com 1.10,2013-05-08 09:03:00,
2013-05-08 05:18:00,47.6,46.0,30.10,SE,146,0.0,0.0,95,0.00,,,0.00,weatherlink.com 1.10,2013-05-08 09:18:00,
2013-05-08 05:33:00,47.7,46.0,30.09,SSE,147,0.0,0.0,94,0.00,,,0.00,weatherlink.com 1.10,2013-05-08 09:33:00,
2013-05-08 05:48:00,48.0,47.0,30.10,SSE,158,0.0,0.0,95,0.00,,,0.00,weatherlink.com 1.10,2013-05-08 09:48:00,
2013-05-08 06:03:00,48.4,47.0,30.10,SE,125,0.0,0.0,94,0.00,,,0.00,weatherlink.com 1.10,2013-05-08 10:03:00,
2013-05-08 06:18:00,48.5,47.0,30.10,SE,127,0.0,0.0,94,0.00,,,0.00,weatherlink.com 1.10,2013-05-08 10:18:00,
2013-05-08 06:33:00,48.4,47.0,30.10,SE,125,0.0,0.0,95,0.00,,,0.00,weatherlink.com 1.10,2013-05-08 10:33:00,
2013-05-08 06:48:00,48.0,47.0,30.12,SE,127,0.0,1.0,95,0.00,,,0.00,weatherlink.com 1.10,2013-05-08 10:48:00,
2013-05-08 07:03:00,47.7,46.0,30.12,SE,125,0.0,0.0,95,0.00,,,0.00,weatherlink.com 1.10,2013-05-08 11:03:00,
2013-05-08 07:18:00,48.1,47.0,30.13,SE,131,0.0,0.0,96,0.00,,,0.00,weatherlink.com 1.10,2013-05-08 11:18:00,
2013-05-08 07:33:00,48.6,48.0,30.13,SE,131,0.0,0.0,96,0.00,,,0.00,weatherlink.com 1.10,2013-05-08 11:33:00,
2013-05-08 07:48:00,49.2,48.0,30.14,SE,131,0.0,0.0,96,0.00,,,0.00,weatherlink.com 1.10,2013-05-08 11:48:00,
2013-05-08 08:03:00,49.9,49.0,30.14,SE,131,0.0,0.0,95,0.00,,,0.00,weatherlink.com 1.10,2013-05-08 12:03:00,
2013-05-08 08:18:00,50.2,49.0,30.14,WNW,283,1.0,2.0,95,0.00,,,0.00,weatherlink.com 1.10,2013-05-08 12:18:00,
2013-05-08 08:33:00,50.5,49.0,30.14,NW,323,0.0,3.0,94,0.00,,,0.00,weatherlink.com 1.10,2013-05-08 12:33:00,
2013-05-08 08:49:00,51.1,50.0,30.14,SW,219,0.0,0.0,94,0.00,,,0.00,weatherlink.com 1.10,2013-05-08 12:49:00,
2013-05-08 09:04:00,52.1,50.0,30.14,NNW,333,2.0,4.0,93,0.00,,,0.00,weatherlink.com 1.10,2013-05-08 13:04:00,
2013-05-08 09:19:00,52.5,50.0,30.15,ENE,65,3.0,3.0,92,0.00,,,0.00,weatherlink.com 1.10,2013-05-08 13:19:00,
2013-05-08 09:34:00,52.8,51.0,30.15,NNW,342,0.0,2.0,92,0.00,,,0.00,weatherlink.com 1.10,2013-05-08 13:34:00,
2013-05-08 09:49:00,53.6,51.0,30.15,NW,312,3.0,5.0,91,0.00,,,0.00,weatherlink.com 1.10,2013-05-08 13:49:00,
2013-05-08 10:04:00,54.4,51.0,30.15,SSE,166,2.0,3.0,89,0.00,,,0.00,weatherlink.com 1.10,2013-05-08 14:04:00,
2013-05-08 10:19:00,55.3,52.0,30.15,East,82,3.0,6.0,88,0.00,,,0.00,weatherlink.com 1.10,2013-05-08 14:19:00,
2013-05-08 10:34:00,55.9,52.0,30.15,WNW,284,2.0,4.0,86,0.00,,,0.00,weatherlink.com 1.10,2013-05-08 14:34:00,
2013-05-08 10:49:00,56.0,52.0,30.16,WNW,284,1.0,2.0,87,0.00,,,0.00,weatherlink.com 1.10,2013-05-08 14:49:00,
2013-05-08 11:04:00,57.6,53.0,30.15,North,358,2.0,3.0,83,0.00,,,0.00,weatherlink.com 1.10,2013-05-08 15:04:00,
2013-05-08 11:19:00,58.6,53.0,30.16,East,101,2.0,3.0,81,0.00,,,0.00,weatherlink.com 1.10,2013-05-08 15:19:00,
2013-05-08 11:34:00,58.2,53.0,30.16,SSW,212,0.0,5.0,82,0.00,,,0.00,weatherlink.com 1.10,2013-05-08 15:34:00,
2013-05-08 11:49:00,58.2,52.0,30.16,NW,312,1.0,4.0,80,0.00,,,0.00,weatherlink.com 1.10,2013-05-08 15:49:00,
2013-05-08 12:04:00,57.3,52.0,30.16,WNW,288,2.0,3.0,83,0.00,,,0.00,weatherlink.com 1.10,2013-05-08 16:04:00,
2013-05-08 12:19:00,58.6,52.0,30.16,SW,231,1.0,4.0,79,0.00,,,0.00,weatherlink.com 1.10,2013-05-08 16:19:00,
2013-05-08 12:34:00,60.8,53.0,30.16,SW,226,1.0,6.0,75,0.00,,,0.00,weatherlink.com 1.10,2013-05-08 16:34:00,
2013-05-08 12:49:00,61.5,53.0,30.15,SW,222,0.0,5.0,73,0.00,,,0.00,weatherlink.com 1.10,2013-05-08 16:49:00,
2013-05-08 13:04:00,61.4,53.0,30.15,WNW,301,1.0,4.0,73,0.00,,,0.00,weatherlink.com 1.10,2013-05-08 17:04:00,
2013-05-08 13:19:00,63.5,53.0,30.14,WNW,293,4.0,6.0,68,0.00,,,0.00,weatherlink.com 1.10,2013-05-08 17:19:00,
2013-05-08 13:34:00,64.7,52.0,30.14,WNW,290,2.0,7.0,63,0.00,,,0.00,weatherlink.com 1.10,2013-05-08 17:34:00,
2013-05-08 13:49:00,63.4,51.0,30.14,WNW,287,1.0,5.0,64,0.00,,,0.00,weatherlink.com 1.10,2013-05-08 17:49:00,
2013-05-08 14:04:00,62.3,50.0,30.14,NNW,327,1.0,4.0,65,0.00,,,0.00,weatherlink.com 1.10,2013-05-08 18:04:00,
2013-05-08 14:19:00,61.7,51.0,30.14,NE,56,0.0,5.0,67,0.00,,,0.00,weatherlink.com 1.10,2013-05-08 18:19:00,
2013-05-08 14:34:00,60.6,51.0,30.14,NW,322,0.0,3.0,70,0.00,,,0.00,weatherlink.com 1.10,2013-05-08 18:34:00,
2013-05-08 14:49:00,60.7,52.0,30.14,NNW,344,3.0,3.0,73,0.00,,,0.00,weatherlink.com 1.10,2013-05-08 18:49:00,
2013-05-08 15:04:00,61.3,51.0,30.14,NNW,343,1.0,4.0,69,0.00,,,0.00,weatherlink.com 1.10,2013-05-08 19:04:00,
2013-05-08 15:19:00,60.6,51.0,30.15,SW,233,2.0,4.0,71,0.00,,,0.00,weatherlink.com 1.10,2013-05-08 19:19:00,
2013-05-08 15:34:00,60.3,51.0,30.14,West,278,0.0,5.0,72,0.00,,,0.00,weatherlink.com 1.10,2013-05-08 19:34:00,
2013-05-08 15:49:00,60.4,52.0,30.14,South,173,0.0,2.0,73,0.00,,,0.00,weatherlink.com 1.10,2013-05-08 19:49:00,
2013-05-08 16:04:00,59.8,51.0,30.15,SSE,160,1.0,2.0,73,0.00,,,0.00,weatherlink.com 1.10,2013-05-08 20:04:00,
2013-05-08 16:19:00,59.3,51.0,30.14,East,98,0.0,5.0,74,0.00,,,0.00,weatherlink.com 1.10,2013-05-08 20:19:00,
2013-05-08 16:34:00,58.8,51.0,30.15,SW,224,2.0,5.0,76,0.00,,,0.00,weatherlink.com 1.10,2013-05-08 20:34:00,
2013-05-08 16:49:00,58.1,51.0,30.15,SW,233,0.0,5.0,78,0.00,,,0.00,weatherlink.com 1.10,2013-05-08 20:49:00,
2013-05-08 17:04:00,58.1,52.0,30.15,SW,228,1.0,3.0,79,0.00,,,0.00,weatherlink.com 1.10,2013-05-08 21:04:00,
2013-05-08 17:19:00,59.2,52.0,30.14,East,98,1.0,5.0,76,0.00,,,0.00,weatherlink.com 1.10,2013-05-08 21:19:00,
2013-05-08 17:34:00,60.3,52.0,30.15,WNW,293,1.0,4.0,75,0.00,,,0.00,weatherlink.com 1.10,2013-05-08 21:34:00,
2013-05-08 17:49:00,60.9,53.0,30.14,WSW,257,0.0,2.0,74,0.00,,,0.00,weatherlink.com 1.10,2013-05-08 21:49:00,
2013-05-08 18:04:00,61.8,52.0,30.14,SE,135,0.0,0.0,71,0.00,,,0.00,weatherlink.com 1.10,2013-05-08 22:04:00,
2013-05-08 18:19:00,61.6,52.0,30.14,NNW,345,0.0,2.0,72,0.00,,,0.00,weatherlink.com 1.10,2013-05-08 22:19:00,
2013-05-08 18:34:00,60.9,53.0,30.14,North,349,0.0,1.0,75,0.00,,,0.00,weatherlink.com 1.10,2013-05-08 22:34:00,
2013-05-08 18:49:00,60.7,53.0,30.14,North,349,0.0,1.0,75,0.00,,,0.00,weatherlink.com 1.10,2013-05-08 22:49:00,
2013-05-08 19:04:00,60.4,53.0,30.14,North,8,0.0,3.0,76,0.00,,,0.00,weatherlink.com 1.10,2013-05-08 23:04:00,
2013-05-08 19:19:00,59.6,53.0,30.14,ESE,102,2.0,2.0,79,0.00,,,0.00,weatherlink.com 1.10,2013-05-08 23:19:00,
2013-05-08 19:34:00,59.0,53.0,30.14,ESE,102,1.0,1.0,80,0.00,,,0.00,weatherlink.com 1.10,2013-05-08 23:34:00,
2013-05-08 19:50:00,58.4,52.0,30.15,SE,125,1.0,2.0,80,0.00,,,0.00,weatherlink.com 1.10,2013-05-08 23:50:00,
2013-05-08 20:05:00,57.9,53.0,30.16,SSE,147,1.0,2.0,84,0.00,,,0.00,weatherlink.com 1.10,2013-05-09 00:05:00,
2013-05-08 20:20:00,57.4,53.0,30.16,SW,219,0.0,1.0,85,0.00,,,0.00,weatherlink.com 1.10,2013-05-09 00:20:00,
2013-05-08 20:35:00,57.2,52.0,30.17,SE,134,1.0,3.0,82,0.00,,,0.00,weatherlink.com 1.10,2013-05-09 00:35:00,
2013-05-08 20:50:00,57.1,53.0,30.17,South,187,0.0,3.0,85,0.00,,,0.00,weatherlink.com 1.10,2013-05-09 00:50:00,
2013-05-08 21:05:00,56.5,53.0,30.17,SSW,193,0.0,2.0,87,0.00,,,0.00,weatherlink.com 1.10,2013-05-09 01:05:00,
2013-05-08 21:35:00,55.6,52.0,30.18,SSE,158,0.0,2.0,87,0.00,,,0.00,weatherlink.com 1.10,2013-05-09 01:35:00,
2013-05-08 21:50:00,55.3,52.0,30.18,SSW,212,0.0,1.0,89,0.00,,,0.00,weatherlink.com 1.10,2013-05-09 01:50:00,
2013-05-08 22:05:00,55.1,52.0,30.19,SSW,194,2.0,2.0,88,0.00,,,0.00,weatherlink.com 1.10,2013-05-09 02:05:00,
2013-05-08 22:20:00,55.0,52.0,30.19,SSE,148,1.0,2.0,88,0.00,,,0.00,weatherlink.com 1.10,2013-05-09 02:20:00,
2013-05-08 22:35:00,54.7,52.0,30.20,SSE,159,0.0,0.0,89,0.00,,,0.00,weatherlink.com 1.10,2013-05-09 02:35:00,
2013-05-08 22:50:00,54.3,51.0,30.20,SSE,159,2.0,2.0,89,0.00,,,0.00,weatherlink.com 1.10,2013-05-09 02:50:00,
2013-05-08 23:05:00,54.5,52.0,30.21,SSE,162,1.0,2.0,90,0.00,,,0.00,weatherlink.com 1.10,2013-05-09 03:05:00,
2013-05-08 23:20:00,54.8,52.0,30.20,SSE,162,0.0,1.0,90,0.00,,,0.00,weatherlink.com 1.10,2013-05-09 03:20:00,
2013-05-08 23:35:00,54.8,52.0,30.19,SSE,167,0.0,2.0,90,0.00,,,0.00,weatherlink.com 1.10,2013-05-09 03:35:00,
2013-05-08 23:50:00,54.7,52.0,30.20,SSE,164,1.0,2.0,89,0.00,,,0.00,weatherlink.com 1.10,2013-05-09 03:50:00,